sensor_id;sensor_type;location;lat;lon;timestamp;temperature;humidity
36800;DHT22;22752;51.960;5.886;2023-04-25T00:01:17;7.10;99.90
36800;DHT22;22752;51.960;5.886;2023-04-25T00:03:44;7.00;99.90
36800;DHT22;22752;51.960;5.886;2023-04-25T00:06:10;6.90;99.90
36800;DHT22;22752;51.960;5.886;2023-04-25T00:08:35;6.90;99.90
36800;DHT22;22752;51.960;5.886;2023-04-25T00:11:01;6.80;99.90
36800;DHT22;22752;51.960;5.886;2023-04-25T00:13:27;6.80;99.90
36800;DHT22;22752;51.960;5.886;2023-04-25T00:15:53;6.70;99.90
36800;DHT22;22752;51.960;5.886;2023-04-25T00:18:19;6.70;99.90
36800;DHT22;22752;51.960;5.886;2023-04-25T00:20:45;6.70;99.90
36800;DHT22;22752;51.960;5.886;2023-04-25T00:23:16;6.70;99.90
36800;DHT22;22752;51.960;5.886;2023-04-25T00:25:44;6.60;99.90
36800;DHT22;22752;51.960;5.886;2023-04-25T00:28:11;6.60;99.90
36800;DHT22;22752;51.960;5.886;2023-04-25T00:30:37;6.50;99.90
36800;DHT22;22752;51.960;5.886;2023-04-25T00:33:03;6.60;99.90
36800;DHT22;22752;51.960;5.886;2023-04-25T00:35:29;6.40;99.90
36800;DHT22;22752;51.960;5.886;2023-04-25T00:37:55;6.40;99.90
36800;DHT22;22752;51.960;5.886;2023-04-25T00:40:20;6.40;99.90
36800;DHT22;22752;51.960;5.886;2023-04-25T00:42:47;6.40;99.90
36800;DHT22;22752;51.960;5.886;2023-04-25T00:45:14;6.40;99.90
36800;DHT22;22752;51.960;5.886;2023-04-25T00:47:43;6.40;99.90
36800;DHT22;22752;51.960;5.886;2023-04-25T00:50:09;6.40;99.90
36800;DHT22;22752;51.960;5.886;2023-04-25T00:52:43;6.50;99.90
36800;DHT22;22752;51.960;5.886;2023-04-25T00:55:10;6.50;99.90
36800;DHT22;22752;51.960;5.886;2023-04-25T00:57:36;6.70;99.90
36800;DHT22;22752;51.960;5.886;2023-04-25T01:00:03;6.70;99.90
36800;DHT22;22752;51.960;5.886;2023-04-25T01:02:32;6.80;99.90
36800;DHT22;22752;51.960;5.886;2023-04-25T01:04:58;6.70;99.90
36800;DHT22;22752;51.960;5.886;2023-04-25T01:07:23;6.70;99.90
36800;DHT22;22752;51.960;5.886;2023-04-25T01:09:51;6.50;99.90
36800;DHT22;22752;51.960;5.886;2023-04-25T01:12:17;6.50;99.90
36800;DHT22;22752;51.960;5.886;2023-04-25T01:14:42;6.40;99.90
36800;DHT22;22752;51.960;5.886;2023-04-25T01:17:09;6.40;99.90
36800;DHT22;22752;51.960;5.886;2023-04-25T01:19:35;6.30;99.90
36800;DHT22;22752;51.960;5.886;2023-04-25T01:22:01;6.30;99.90
36800;DHT22;22752;51.960;5.886;2023-04-25T01:24:26;6.30;99.90
36800;DHT22;22752;51.960;5.886;2023-04-25T01:26:53;6.40;99.90
36800;DHT22;22752;51.960;5.886;2023-04-25T01:29:22;6.40;99.90
36800;DHT22;22752;51.960;5.886;2023-04-25T01:31:48;6.40;99.90
36800;DHT22;22752;51.960;5.886;2023-04-25T01:34:14;6.50;99.90
36800;DHT22;22752;51.960;5.886;2023-04-25T01:36:40;6.50;99.90
36800;DHT22;22752;51.960;5.886;2023-04-25T01:39:06;6.60;99.90
36800;DHT22;22752;51.960;5.886;2023-04-25T01:41:32;6.70;99.90
36800;DHT22;22752;51.960;5.886;2023-04-25T01:44:00;6.70;99.90
36800;DHT22;22752;51.960;5.886;2023-04-25T01:46:26;6.70;99.90
36800;DHT22;22752;51.960;5.886;2023-04-25T01:48:51;6.70;99.90
36800;DHT22;22752;51.960;5.886;2023-04-25T01:51:17;6.80;99.90
36800;DHT22;22752;51.960;5.886;2023-04-25T01:53:43;6.80;99.90
36800;DHT22;22752;51.960;5.886;2023-04-25T01:56:09;6.80;99.90
36800;DHT22;22752;51.960;5.886;2023-04-25T01:58:35;6.80;99.90
36800;DHT22;22752;51.960;5.886;2023-04-25T02:01:01;6.80;99.90
36800;DHT22;22752;51.960;5.886;2023-04-25T02:03:26;6.90;99.90
36800;DHT22;22752;51.960;5.886;2023-04-25T02:05:52;6.80;99.90
36800;DHT22;22752;51.960;5.886;2023-04-25T02:08:18;6.80;99.90
36800;DHT22;22752;51.960;5.886;2023-04-25T02:10:44;6.80;99.90
36800;DHT22;22752;51.960;5.886;2023-04-25T02:13:09;6.80;99.90
36800;DHT22;22752;51.960;5.886;2023-04-25T02:15:35;6.80;99.90
36800;DHT22;22752;51.960;5.886;2023-04-25T02:18:01;6.80;99.90
36800;DHT22;22752;51.960;5.886;2023-04-25T02:20:28;6.80;99.90
36800;DHT22;22752;51.960;5.886;2023-04-25T02:22:54;6.70;99.90
36800;DHT22;22752;51.960;5.886;2023-04-25T02:25:20;6.70;99.90
36800;DHT22;22752;51.960;5.886;2023-04-25T02:27:46;6.70;99.90
36800;DHT22;22752;51.960;5.886;2023-04-25T02:30:12;6.70;99.90
36800;DHT22;22752;51.960;5.886;2023-04-25T02:32:39;6.70;99.90
36800;DHT22;22752;51.960;5.886;2023-04-25T02:35:05;6.70;99.90
36800;DHT22;22752;51.960;5.886;2023-04-25T02:37:32;6.70;99.90
36800;DHT22;22752;51.960;5.886;2023-04-25T02:39:58;6.60;99.90
36800;DHT22;22752;51.960;5.886;2023-04-25T02:42:24;6.60;99.90
36800;DHT22;22752;51.960;5.886;2023-04-25T02:44:50;6.60;99.90
36800;DHT22;22752;51.960;5.886;2023-04-25T02:47:16;6.50;99.90
36800;DHT22;22752;51.960;5.886;2023-04-25T02:49:41;6.40;99.90
36800;DHT22;22752;51.960;5.886;2023-04-25T02:52:07;6.30;99.90
36800;DHT22;22752;51.960;5.886;2023-04-25T02:54:32;6.30;99.90
36800;DHT22;22752;51.960;5.886;2023-04-25T02:56:58;6.10;99.90
36800;DHT22;22752;51.960;5.886;2023-04-25T02:59:24;6.00;99.90
36800;DHT22;22752;51.960;5.886;2023-04-25T03:01:49;5.90;99.90
36800;DHT22;22752;51.960;5.886;2023-04-25T03:04:15;5.90;99.90
36800;DHT22;22752;51.960;5.886;2023-04-25T03:06:41;5.80;99.90
36800;DHT22;22752;51.960;5.886;2023-04-25T03:09:06;5.80;99.90
36800;DHT22;22752;51.960;5.886;2023-04-25T03:11:32;5.70;99.90
36800;DHT22;22752;51.960;5.886;2023-04-25T03:13:58;5.70;99.90
36800;DHT22;22752;51.960;5.886;2023-04-25T03:16:23;5.60;99.90
36800;DHT22;22752;51.960;5.886;2023-04-25T03:18:49;5.60;99.90
36800;DHT22;22752;51.960;5.886;2023-04-25T03:21:16;5.50;99.90
36800;DHT22;22752;51.960;5.886;2023-04-25T03:23:42;5.50;99.90
36800;DHT22;22752;51.960;5.886;2023-04-25T03:26:07;5.50;99.90
36800;DHT22;22752;51.960;5.886;2023-04-25T03:28:33;5.40;99.90
36800;DHT22;22752;51.960;5.886;2023-04-25T03:30:59;5.40;99.90
36800;DHT22;22752;51.960;5.886;2023-04-25T03:33:24;5.30;99.90
36800;DHT22;22752;51.960;5.886;2023-04-25T03:35:50;5.30;99.90
36800;DHT22;22752;51.960;5.886;2023-04-25T03:38:16;5.30;99.90
36800;DHT22;22752;51.960;5.886;2023-04-25T03:40:42;5.40;99.90
36800;DHT22;22752;51.960;5.886;2023-04-25T03:43:08;5.20;99.90
36800;DHT22;22752;51.960;5.886;2023-04-25T03:45:33;5.20;99.90
36800;DHT22;22752;51.960;5.886;2023-04-25T03:47:59;5.20;99.90
36800;DHT22;22752;51.960;5.886;2023-04-25T03:50:25;5.20;99.90
36800;DHT22;22752;51.960;5.886;2023-04-25T03:52:51;5.20;99.90
36800;DHT22;22752;51.960;5.886;2023-04-25T03:55:16;5.30;99.90
36800;DHT22;22752;51.960;5.886;2023-04-25T03:57:42;5.30;99.90
36800;DHT22;22752;51.960;5.886;2023-04-25T04:00:08;5.30;99.90
36800;DHT22;22752;51.960;5.886;2023-04-25T04:02:35;5.30;99.90
36800;DHT22;22752;51.960;5.886;2023-04-25T04:05:03;5.30;99.90
36800;DHT22;22752;51.960;5.886;2023-04-25T04:07:29;5.10;99.90
36800;DHT22;22752;51.960;5.886;2023-04-25T04:09:54;5.10;99.90
36800;DHT22;22752;51.960;5.886;2023-04-25T04:12:20;5.10;99.90
36800;DHT22;22752;51.960;5.886;2023-04-25T04:14:46;5.00;99.90
36800;DHT22;22752;51.960;5.886;2023-04-25T04:17:11;4.90;99.90
36800;DHT22;22752;51.960;5.886;2023-04-25T04:19:37;4.90;99.90
36800;DHT22;22752;51.960;5.886;2023-04-25T04:22:03;4.80;99.90
36800;DHT22;22752;51.960;5.886;2023-04-25T04:24:29;4.80;99.90
36800;DHT22;22752;51.960;5.886;2023-04-25T04:26:54;4.90;99.90
36800;DHT22;22752;51.960;5.886;2023-04-25T04:29:20;4.80;99.90
36800;DHT22;22752;51.960;5.886;2023-04-25T04:31:50;4.80;99.90
36800;DHT22;22752;51.960;5.886;2023-04-25T04:34:16;4.80;99.90
36800;DHT22;22752;51.960;5.886;2023-04-25T04:36:43;4.80;99.90
36800;DHT22;22752;51.960;5.886;2023-04-25T04:39:12;4.80;99.90
36800;DHT22;22752;51.960;5.886;2023-04-25T04:41:37;4.80;99.90
36800;DHT22;22752;51.960;5.886;2023-04-25T04:44:04;4.80;99.90
36800;DHT22;22752;51.960;5.886;2023-04-25T04:46:29;4.80;99.90
36800;DHT22;22752;51.960;5.886;2023-04-25T04:49:05;4.90;99.90
36800;DHT22;22752;51.960;5.886;2023-04-25T04:51:31;4.80;99.90
36800;DHT22;22752;51.960;5.886;2023-04-25T04:53:57;4.90;99.90
36800;DHT22;22752;51.960;5.886;2023-04-25T04:56:24;4.90;99.90
36800;DHT22;22752;51.960;5.886;2023-04-25T04:58:51;5.10;99.90
36800;DHT22;22752;51.960;5.886;2023-04-25T05:01:17;5.10;99.90
36800;DHT22;22752;51.960;5.886;2023-04-25T05:03:43;5.20;99.90
36800;DHT22;22752;51.960;5.886;2023-04-25T05:06:09;5.30;99.90
36800;DHT22;22752;51.960;5.886;2023-04-25T05:08:35;5.40;99.90
36800;DHT22;22752;51.960;5.886;2023-04-25T05:11:01;5.50;99.90
36800;DHT22;22752;51.960;5.886;2023-04-25T05:13:27;5.50;99.90
36800;DHT22;22752;51.960;5.886;2023-04-25T05:15:52;5.60;99.90
36800;DHT22;22752;51.960;5.886;2023-04-25T05:18:18;5.60;99.90
36800;DHT22;22752;51.960;5.886;2023-04-25T05:20:44;5.60;99.90
36800;DHT22;22752;51.960;5.886;2023-04-25T05:23:09;5.70;99.90
36800;DHT22;22752;51.960;5.886;2023-04-25T05:25:35;5.80;99.90
36800;DHT22;22752;51.960;5.886;2023-04-25T05:28:01;5.80;99.90
36800;DHT22;22752;51.960;5.886;2023-04-25T05:30:26;5.90;99.90
36800;DHT22;22752;51.960;5.886;2023-04-25T05:32:52;6.00;99.90
36800;DHT22;22752;51.960;5.886;2023-04-25T05:35:17;6.10;99.90
36800;DHT22;22752;51.960;5.886;2023-04-25T05:37:43;6.30;99.90
36800;DHT22;22752;51.960;5.886;2023-04-25T05:40:09;6.40;99.90
36800;DHT22;22752;51.960;5.886;2023-04-25T05:42:35;6.50;99.90
36800;DHT22;22752;51.960;5.886;2023-04-25T05:45:01;6.60;99.90
36800;DHT22;22752;51.960;5.886;2023-04-25T05:47:26;6.80;99.90
36800;DHT22;22752;51.960;5.886;2023-04-25T05:49:52;6.90;99.90
36800;DHT22;22752;51.960;5.886;2023-04-25T05:52:18;7.00;99.90
36800;DHT22;22752;51.960;5.886;2023-04-25T05:54:44;7.00;99.90
36800;DHT22;22752;51.960;5.886;2023-04-25T05:57:22;7.10;99.90
36800;DHT22;22752;51.960;5.886;2023-04-25T05:59:47;7.40;99.90
36800;DHT22;22752;51.960;5.886;2023-04-25T06:02:13;8.00;99.90
36800;DHT22;22752;51.960;5.886;2023-04-25T06:04:39;8.40;99.90
36800;DHT22;22752;51.960;5.886;2023-04-25T06:07:04;8.60;99.90
36800;DHT22;22752;51.960;5.886;2023-04-25T06:09:30;8.50;99.90
36800;DHT22;22752;51.960;5.886;2023-04-25T06:11:55;8.40;99.90
36800;DHT22;22752;51.960;5.886;2023-04-25T06:14:21;8.50;99.90
36800;DHT22;22752;51.960;5.886;2023-04-25T06:16:47;8.60;99.90
36800;DHT22;22752;51.960;5.886;2023-04-25T06:19:12;8.70;99.90
36800;DHT22;22752;51.960;5.886;2023-04-25T06:21:38;8.60;99.90
36800;DHT22;22752;51.960;5.886;2023-04-25T06:24:04;8.50;99.90
36800;DHT22;22752;51.960;5.886;2023-04-25T06:26:29;8.40;99.90
36800;DHT22;22752;51.960;5.886;2023-04-25T06:28:55;8.20;99.90
36800;DHT22;22752;51.960;5.886;2023-04-25T06:31:21;8.00;99.90
36800;DHT22;22752;51.960;5.886;2023-04-25T06:33:46;8.00;99.90
36800;DHT22;22752;51.960;5.886;2023-04-25T06:36:13;7.90;99.90
36800;DHT22;22752;51.960;5.886;2023-04-25T06:38:39;8.00;99.90
36800;DHT22;22752;51.960;5.886;2023-04-25T06:41:05;8.10;99.90
36800;DHT22;22752;51.960;5.886;2023-04-25T06:43:30;8.40;99.90
36800;DHT22;22752;51.960;5.886;2023-04-25T06:46:01;8.60;99.90
36800;DHT22;22752;51.960;5.886;2023-04-25T06:48:27;8.70;99.90
36800;DHT22;22752;51.960;5.886;2023-04-25T06:50:53;8.80;99.90
36800;DHT22;22752;51.960;5.886;2023-04-25T06:53:19;8.80;99.90
36800;DHT22;22752;51.960;5.886;2023-04-25T06:55:45;8.90;99.90
36800;DHT22;22752;51.960;5.886;2023-04-25T06:58:11;9.00;99.90
36800;DHT22;22752;51.960;5.886;2023-04-25T07:00:36;9.10;99.90
36800;DHT22;22752;51.960;5.886;2023-04-25T07:03:02;9.30;99.90
36800;DHT22;22752;51.960;5.886;2023-04-25T07:05:27;9.40;99.90
36800;DHT22;22752;51.960;5.886;2023-04-25T07:07:53;9.50;99.90
36800;DHT22;22752;51.960;5.886;2023-04-25T07:10:19;9.50;99.90
36800;DHT22;22752;51.960;5.886;2023-04-25T07:12:44;9.50;99.90
36800;DHT22;22752;51.960;5.886;2023-04-25T07:15:10;9.50;99.90
36800;DHT22;22752;51.960;5.886;2023-04-25T07:17:37;9.60;99.90
36800;DHT22;22752;51.960;5.886;2023-04-25T07:20:04;9.80;99.90
36800;DHT22;22752;51.960;5.886;2023-04-25T07:22:31;10.10;99.90
36800;DHT22;22752;51.960;5.886;2023-04-25T07:24:57;10.40;99.90
36800;DHT22;22752;51.960;5.886;2023-04-25T07:27:23;10.70;99.90
36800;DHT22;22752;51.960;5.886;2023-04-25T07:29:48;10.90;99.90
36800;DHT22;22752;51.960;5.886;2023-04-25T07:32:14;11.00;99.90
36800;DHT22;22752;51.960;5.886;2023-04-25T07:34:40;11.20;99.90
36800;DHT22;22752;51.960;5.886;2023-04-25T07:37:06;11.50;99.90
36800;DHT22;22752;51.960;5.886;2023-04-25T07:39:32;12.10;99.90
36800;DHT22;22752;51.960;5.886;2023-04-25T07:41:58;12.60;99.90
36800;DHT22;22752;51.960;5.886;2023-04-25T07:44:27;13.10;99.90
36800;DHT22;22752;51.960;5.886;2023-04-25T07:46:53;12.90;99.90
36800;DHT22;22752;51.960;5.886;2023-04-25T07:49:19;12.80;99.90
36800;DHT22;22752;51.960;5.886;2023-04-25T07:51:44;13.10;99.90
36800;DHT22;22752;51.960;5.886;2023-04-25T07:54:13;13.00;99.90
36800;DHT22;22752;51.960;5.886;2023-04-25T07:56:39;12.90;99.90
36800;DHT22;22752;51.960;5.886;2023-04-25T07:59:04;13.00;99.90
36800;DHT22;22752;51.960;5.886;2023-04-25T08:01:30;13.00;99.90
36800;DHT22;22752;51.960;5.886;2023-04-25T08:03:56;12.90;99.90
36800;DHT22;22752;51.960;5.886;2023-04-25T08:06:22;13.10;99.90
36800;DHT22;22752;51.960;5.886;2023-04-25T08:08:47;13.50;99.90
36800;DHT22;22752;51.960;5.886;2023-04-25T08:11:13;13.80;99.90
36800;DHT22;22752;51.960;5.886;2023-04-25T08:13:38;13.80;99.90
36800;DHT22;22752;51.960;5.886;2023-04-25T08:16:04;13.80;99.90
36800;DHT22;22752;51.960;5.886;2023-04-25T08:18:30;13.80;99.90
36800;DHT22;22752;51.960;5.886;2023-04-25T08:20:56;14.00;99.90
36800;DHT22;22752;51.960;5.886;2023-04-25T08:23:22;14.30;99.90
36800;DHT22;22752;51.960;5.886;2023-04-25T08:25:47;14.30;99.90
36800;DHT22;22752;51.960;5.886;2023-04-25T08:28:13;14.30;99.90
36800;DHT22;22752;51.960;5.886;2023-04-25T08:30:39;14.60;99.90
36800;DHT22;22752;51.960;5.886;2023-04-25T08:33:05;15.10;99.90
36800;DHT22;22752;51.960;5.886;2023-04-25T08:35:31;15.40;99.90
36800;DHT22;22752;51.960;5.886;2023-04-25T08:37:58;15.70;99.40
36800;DHT22;22752;51.960;5.886;2023-04-25T08:40:27;16.20;97.90
36800;DHT22;22752;51.960;5.886;2023-04-25T08:42:57;16.50;96.00
36800;DHT22;22752;51.960;5.886;2023-04-25T08:45:23;16.30;95.60
36800;DHT22;22752;51.960;5.886;2023-04-25T08:47:51;15.80;95.70
36800;DHT22;22752;51.960;5.886;2023-04-25T08:50:18;15.00;95.00
36800;DHT22;22752;51.960;5.886;2023-04-25T08:52:47;14.30;95.50
36800;DHT22;22752;51.960;5.886;2023-04-25T08:55:15;13.80;96.70
36800;DHT22;22752;51.960;5.886;2023-04-25T08:57:42;13.40;97.70
36800;DHT22;22752;51.960;5.886;2023-04-25T09:00:10;13.00;96.80
36800;DHT22;22752;51.960;5.886;2023-04-25T09:02:37;12.60;97.20
36800;DHT22;22752;51.960;5.886;2023-04-25T09:05:03;12.40;98.20
36800;DHT22;22752;51.960;5.886;2023-04-25T09:07:30;12.20;98.00
36800;DHT22;22752;51.960;5.886;2023-04-25T09:09:55;11.90;98.10
36800;DHT22;22752;51.960;5.886;2023-04-25T09:12:21;11.60;99.00
36800;DHT22;22752;51.960;5.886;2023-04-25T09:17:29;11.30;99.30
36800;DHT22;22752;51.960;5.886;2023-04-25T09:19:55;11.10;99.90
36800;DHT22;22752;51.960;5.886;2023-04-25T09:22:30;11.10;99.90
36800;DHT22;22752;51.960;5.886;2023-04-25T09:24:56;11.10;99.90
36800;DHT22;22752;51.960;5.886;2023-04-25T09:27:21;11.20;99.90
36800;DHT22;22752;51.960;5.886;2023-04-25T09:29:57;11.20;99.90
36800;DHT22;22752;51.960;5.886;2023-04-25T09:32:25;11.30;99.90
36800;DHT22;22752;51.960;5.886;2023-04-25T09:34:52;11.40;99.90
36800;DHT22;22752;51.960;5.886;2023-04-25T09:37:25;11.60;99.90
36800;DHT22;22752;51.960;5.886;2023-04-25T09:39:53;11.70;99.90
36800;DHT22;22752;51.960;5.886;2023-04-25T09:42:25;11.60;99.70
36800;DHT22;22752;51.960;5.886;2023-04-25T09:44:52;11.60;99.90
36800;DHT22;22752;51.960;5.886;2023-04-25T09:47:19;11.50;99.70
36800;DHT22;22752;51.960;5.886;2023-04-25T09:49:47;11.40;99.20
36800;DHT22;22752;51.960;5.886;2023-04-25T09:52:19;11.30;99.90
36800;DHT22;22752;51.960;5.886;2023-04-25T09:54:46;11.40;99.90
36800;DHT22;22752;51.960;5.886;2023-04-25T09:57:18;11.40;99.70
36800;DHT22;22752;51.960;5.886;2023-04-25T09:59:47;11.60;99.90
36800;DHT22;22752;51.960;5.886;2023-04-25T10:02:18;11.80;99.70
36800;DHT22;22752;51.960;5.886;2023-04-25T10:04:51;11.90;99.40
36800;DHT22;22752;51.960;5.886;2023-04-25T10:07:20;11.90;98.50
36800;DHT22;22752;51.960;5.886;2023-04-25T10:09:49;12.00;98.70
36800;DHT22;22752;51.960;5.886;2023-04-25T10:12:16;12.20;98.70
36800;DHT22;22752;51.960;5.886;2023-04-25T10:14:42;12.60;98.50
36800;DHT22;22752;51.960;5.886;2023-04-25T10:17:10;12.90;98.90
36800;DHT22;22752;51.960;5.886;2023-04-25T10:19:36;13.20;98.00
36800;DHT22;22752;51.960;5.886;2023-04-25T10:22:11;13.10;96.90
36800;DHT22;22752;51.960;5.886;2023-04-25T10:24:38;12.80;95.70
36800;DHT22;22752;51.960;5.886;2023-04-25T10:27:05;12.60;96.70
36800;DHT22;22752;51.960;5.886;2023-04-25T10:29:31;12.40;96.40
36800;DHT22;22752;51.960;5.886;2023-04-25T10:31:57;12.30;96.60
36800;DHT22;22752;51.960;5.886;2023-04-25T10:34:40;12.50;96.50
36800;DHT22;22752;51.960;5.886;2023-04-25T10:37:09;12.60;96.10
36800;DHT22;22752;51.960;5.886;2023-04-25T10:39:35;12.70;96.10
36800;DHT22;22752;51.960;5.886;2023-04-25T10:42:02;12.60;95.30
36800;DHT22;22752;51.960;5.886;2023-04-25T10:44:29;12.50;94.70
36800;DHT22;22752;51.960;5.886;2023-04-25T10:46:56;12.20;95.50
36800;DHT22;22752;51.960;5.886;2023-04-25T10:49:31;12.10;96.70
36800;DHT22;22752;51.960;5.886;2023-04-25T10:52:25;11.90;97.70
36800;DHT22;22752;51.960;5.886;2023-04-25T10:54:53;11.70;98.40
36800;DHT22;22752;51.960;5.886;2023-04-25T10:57:39;11.80;98.80
36800;DHT22;22752;51.960;5.886;2023-04-25T11:02:53;12.10;96.60
36800;DHT22;22752;51.960;5.886;2023-04-25T11:05:31;12.20;96.90
36800;DHT22;22752;51.960;5.886;2023-04-25T11:07:58;12.40;96.80
36800;DHT22;22752;51.960;5.886;2023-04-25T11:10:31;12.60;96.70
36800;DHT22;22752;51.960;5.886;2023-04-25T11:12:58;12.80;96.00
36800;DHT22;22752;51.960;5.886;2023-04-25T11:15:25;12.90;95.70
36800;DHT22;22752;51.960;5.886;2023-04-25T11:17:51;13.20;95.90
36800;DHT22;22752;51.960;5.886;2023-04-25T11:20:17;13.40;95.00
36800;DHT22;22752;51.960;5.886;2023-04-25T11:22:45;13.60;94.80
36800;DHT22;22752;51.960;5.886;2023-04-25T11:25:13;13.60;94.60
36800;DHT22;22752;51.960;5.886;2023-04-25T11:27:55;13.50;94.90
36800;DHT22;22752;51.960;5.886;2023-04-25T11:30:23;13.20;93.40
36800;DHT22;22752;51.960;5.886;2023-04-25T11:32:49;12.90;92.70
36800;DHT22;22752;51.960;5.886;2023-04-25T11:35:16;12.70;92.80
36800;DHT22;22752;51.960;5.886;2023-04-25T11:37:42;12.50;93.00
36800;DHT22;22752;51.960;5.886;2023-04-25T11:40:09;12.50;94.20
36800;DHT22;22752;51.960;5.886;2023-04-25T11:42:39;12.50;93.90
36800;DHT22;22752;51.960;5.886;2023-04-25T11:45:08;12.70;95.10
36800;DHT22;22752;51.960;5.886;2023-04-25T11:47:34;12.80;94.40
36800;DHT22;22752;51.960;5.886;2023-04-25T11:50:02;12.80;94.30
36800;DHT22;22752;51.960;5.886;2023-04-25T11:52:48;12.70;94.60
36800;DHT22;22752;51.960;5.886;2023-04-25T11:55:16;12.70;94.70
36800;DHT22;22752;51.960;5.886;2023-04-25T11:57:43;12.50;93.70
36800;DHT22;22752;51.960;5.886;2023-04-25T12:00:14;12.40;93.40
36800;DHT22;22752;51.960;5.886;2023-04-25T12:02:41;12.30;93.40
36800;DHT22;22752;51.960;5.886;2023-04-25T12:05:08;12.40;94.10
36800;DHT22;22752;51.960;5.886;2023-04-25T12:07:34;12.40;94.30
36800;DHT22;22752;51.960;5.886;2023-04-25T12:10:04;12.50;94.30
36800;DHT22;22752;51.960;5.886;2023-04-25T12:12:35;12.60;94.10
36800;DHT22;22752;51.960;5.886;2023-04-25T12:15:24;12.70;94.10
36800;DHT22;22752;51.960;5.886;2023-04-25T12:17:51;12.60;94.60
36800;DHT22;22752;51.960;5.886;2023-04-25T12:20:20;12.30;95.80
36800;DHT22;22752;51.960;5.886;2023-04-25T12:22:49;12.10;96.60
36800;DHT22;22752;51.960;5.886;2023-04-25T12:28:23;11.60;97.50
36800;DHT22;22752;51.960;5.886;2023-04-25T12:31:01;11.40;98.40
36800;DHT22;22752;51.960;5.886;2023-04-25T12:33:33;11.10;99.50
36800;DHT22;22752;51.960;5.886;2023-04-25T12:35:59;11.00;99.80
36800;DHT22;22752;51.960;5.886;2023-04-25T12:38:27;10.80;99.80
36800;DHT22;22752;51.960;5.886;2023-04-25T12:40:53;10.90;99.90
36800;DHT22;22752;51.960;5.886;2023-04-25T12:43:19;10.90;99.90
36800;DHT22;22752;51.960;5.886;2023-04-25T12:45:48;11.00;99.90
36800;DHT22;22752;51.960;5.886;2023-04-25T12:48:14;11.30;99.90
36800;DHT22;22752;51.960;5.886;2023-04-25T12:50:40;11.50;99.90
36800;DHT22;22752;51.960;5.886;2023-04-25T12:53:06;11.70;99.30
36800;DHT22;22752;51.960;5.886;2023-04-25T12:55:32;11.90;99.00
36800;DHT22;22752;51.960;5.886;2023-04-25T12:57:57;12.10;97.90
36800;DHT22;22752;51.960;5.886;2023-04-25T13:00:23;12.30;97.70
36800;DHT22;22752;51.960;5.886;2023-04-25T13:02:50;12.50;96.40
36800;DHT22;22752;51.960;5.886;2023-04-25T13:05:15;12.60;96.70
36800;DHT22;22752;51.960;5.886;2023-04-25T13:07:41;12.80;97.00
36800;DHT22;22752;51.960;5.886;2023-04-25T13:10:07;12.90;95.40
36800;DHT22;22752;51.960;5.886;2023-04-25T13:12:33;12.80;95.00
36800;DHT22;22752;51.960;5.886;2023-04-25T13:14:58;12.70;95.10
36800;DHT22;22752;51.960;5.886;2023-04-25T13:17:24;12.70;95.50
36800;DHT22;22752;51.960;5.886;2023-04-25T13:19:50;12.80;95.30
36800;DHT22;22752;51.960;5.886;2023-04-25T13:22:16;12.90;95.60
36800;DHT22;22752;51.960;5.886;2023-04-25T13:24:46;13.20;95.70
36800;DHT22;22752;51.960;5.886;2023-04-25T13:27:12;13.10;95.40
36800;DHT22;22752;51.960;5.886;2023-04-25T13:29:38;13.00;95.30
36800;DHT22;22752;51.960;5.886;2023-04-25T13:32:06;12.80;95.50
36800;DHT22;22752;51.960;5.886;2023-04-25T13:34:31;12.60;95.80
36800;DHT22;22752;51.960;5.886;2023-04-25T13:36:57;12.60;96.40
36800;DHT22;22752;51.960;5.886;2023-04-25T13:39:23;12.80;96.50
36800;DHT22;22752;51.960;5.886;2023-04-25T13:41:48;13.00;96.00
36800;DHT22;22752;51.960;5.886;2023-04-25T13:44:14;13.00;95.50
36800;DHT22;22752;51.960;5.886;2023-04-25T13:46:40;12.90;95.40
36800;DHT22;22752;51.960;5.886;2023-04-25T13:49:05;12.70;95.50
36800;DHT22;22752;51.960;5.886;2023-04-25T13:51:31;12.50;95.00
36800;DHT22;22752;51.960;5.886;2023-04-25T13:53:57;12.20;94.80
36800;DHT22;22752;51.960;5.886;2023-04-25T13:56:23;12.20;94.10
36800;DHT22;22752;51.960;5.886;2023-04-25T13:58:50;12.30;94.10
36800;DHT22;22752;51.960;5.886;2023-04-25T14:01:17;12.40;94.00
36800;DHT22;22752;51.960;5.886;2023-04-25T14:03:42;12.40;93.90
36800;DHT22;22752;51.960;5.886;2023-04-25T14:06:08;12.30;93.70
36800;DHT22;22752;51.960;5.886;2023-04-25T14:08:34;12.10;93.90
36800;DHT22;22752;51.960;5.886;2023-04-25T14:11:00;12.00;93.40
36800;DHT22;22752;51.960;5.886;2023-04-25T14:13:26;12.10;93.50
36800;DHT22;22752;51.960;5.886;2023-04-25T14:15:52;12.20;93.30
36800;DHT22;22752;51.960;5.886;2023-04-25T14:18:18;12.20;92.50
36800;DHT22;22752;51.960;5.886;2023-04-25T14:20:44;12.20;92.90
36800;DHT22;22752;51.960;5.886;2023-04-25T14:23:10;12.10;93.70
36800;DHT22;22752;51.960;5.886;2023-04-25T14:25:36;11.90;94.60
36800;DHT22;22752;51.960;5.886;2023-04-25T14:28:02;12.00;95.60
36800;DHT22;22752;51.960;5.886;2023-04-25T14:30:28;12.00;95.10
36800;DHT22;22752;51.960;5.886;2023-04-25T14:32:54;12.00;95.50
36800;DHT22;22752;51.960;5.886;2023-04-25T14:35:19;12.00;94.60
36800;DHT22;22752;51.960;5.886;2023-04-25T14:37:45;12.10;94.90
36800;DHT22;22752;51.960;5.886;2023-04-25T14:40:12;12.30;94.50
36800;DHT22;22752;51.960;5.886;2023-04-25T14:42:39;12.50;94.20
36800;DHT22;22752;51.960;5.886;2023-04-25T14:45:06;12.60;94.30
36800;DHT22;22752;51.960;5.886;2023-04-25T14:47:36;12.60;94.30
36800;DHT22;22752;51.960;5.886;2023-04-25T14:50:02;12.60;93.00
36800;DHT22;22752;51.960;5.886;2023-04-25T14:52:28;12.50;92.80
36800;DHT22;22752;51.960;5.886;2023-04-25T14:54:54;12.40;92.40
36800;DHT22;22752;51.960;5.886;2023-04-25T14:57:20;12.50;92.90
36800;DHT22;22752;51.960;5.886;2023-04-25T14:59:45;12.60;92.80
36800;DHT22;22752;51.960;5.886;2023-04-25T15:02:11;12.80;92.90
36800;DHT22;22752;51.960;5.886;2023-04-25T15:04:37;12.80;92.50
36800;DHT22;22752;51.960;5.886;2023-04-25T15:07:02;12.80;92.20
36800;DHT22;22752;51.960;5.886;2023-04-25T15:09:29;12.90;92.50
36800;DHT22;22752;51.960;5.886;2023-04-25T15:11:55;12.80;93.10
36800;DHT22;22752;51.960;5.886;2023-04-25T15:14:21;12.70;92.00
36800;DHT22;22752;51.960;5.886;2023-04-25T15:16:46;12.40;92.10
36800;DHT22;22752;51.960;5.886;2023-04-25T15:19:12;12.20;92.80
36800;DHT22;22752;51.960;5.886;2023-04-25T15:21:38;12.10;92.60
36800;DHT22;22752;51.960;5.886;2023-04-25T15:24:03;12.10;92.40
36800;DHT22;22752;51.960;5.886;2023-04-25T15:26:29;12.00;93.00
36800;DHT22;22752;51.960;5.886;2023-04-25T15:28:55;11.90;92.70
36800;DHT22;22752;51.960;5.886;2023-04-25T15:31:21;11.90;92.80
36800;DHT22;22752;51.960;5.886;2023-04-25T15:33:47;11.80;92.80
36800;DHT22;22752;51.960;5.886;2023-04-25T15:36:13;11.70;93.60
36800;DHT22;22752;51.960;5.886;2023-04-25T15:38:41;11.50;94.10
36800;DHT22;22752;51.960;5.886;2023-04-25T15:41:07;11.30;95.10
36800;DHT22;22752;51.960;5.886;2023-04-25T15:43:33;11.10;96.20